createdAt,value
2022-09-12T00:04:16.157Z,17.98
2022-09-12T00:09:17.547Z,19.63
2022-09-12T00:19:20.561Z,18.80
2022-09-12T00:29:23.255Z,16.90
2022-09-12T00:39:26.109Z,19.58
2022-09-12T00:44:27.404Z,17.70
2022-09-12T00:49:31.765Z,17.38
2022-09-12T00:54:41.974Z,17.17
2022-09-12T00:59:52.339Z,17.38
2022-09-12T01:04:53.761Z,17.30
2022-09-12T01:14:56.589Z,16.88
2022-09-12T01:20:18.987Z,15.85
2022-09-12T01:26:01.790Z,16.98
2022-09-12T01:31:15.647Z,17.88
2022-09-12T01:36:45.983Z,17.00
2022-09-12T01:41:54.404Z,17.15
2022-09-12T01:47:11.059Z,17.52
2022-09-12T01:52:22.965Z,17.20
2022-09-12T01:57:31.758Z,17.02
2022-09-12T02:02:39.633Z,17.08
2022-09-12T02:07:51.414Z,17.48
2022-09-12T02:12:59.413Z,17.90
2022-09-12T02:18:04.493Z,18.05
2022-09-12T02:23:10.997Z,18.42
2022-09-12T02:28:18.467Z,18.80
2022-09-12T02:33:45.661Z,17.13
2022-09-12T02:38:48.501Z,18.38
2022-09-12T02:43:51.536Z,18.20
2022-09-12T02:48:54.203Z,17.55
2022-09-12T02:53:55.921Z,18.65
2022-09-12T02:59:04.727Z,17.65
2022-09-12T03:04:11.946Z,18.23
2022-09-12T03:09:47.226Z,18.48
2022-09-12T03:15:01.634Z,19.05
2022-09-12T03:20:15.356Z,20.27
2022-09-12T03:25:25.761Z,17.98
2022-09-12T03:30:27.455Z,18.98
2022-09-12T03:35:29.902Z,17.95
2022-09-12T03:40:31.238Z,17.45
2022-09-12T03:45:32.609Z,17.45
2022-09-12T03:50:34.150Z,16.73
2022-09-12T04:00:39.046Z,16.88
2022-09-12T04:05:40.402Z,17.02
2022-09-12T04:10:41.755Z,18.55
2022-09-12T04:15:43.157Z,17.02
2022-09-12T04:25:54.313Z,17.02
2022-09-12T04:30:56.435Z,18.92
2022-09-12T04:36:03.958Z,17.00
2022-09-12T04:41:21.238Z,17.65
2022-09-12T04:46:22.682Z,17.23
2022-09-12T04:56:36.291Z,16.35
2022-09-12T05:01:37.749Z,16.83
2022-09-12T05:12:03.257Z,16.20
2022-09-12T05:17:05.943Z,16.27
2022-09-12T05:22:07.485Z,16.05
2022-09-12T05:27:09.565Z,16.05
2022-09-12T05:32:12.414Z,17.00
2022-09-12T05:37:13.793Z,18.15
2022-09-12T05:47:17.291Z,16.83
2022-09-12T05:52:18.687Z,18.45
2022-09-12T06:02:21.543Z,17.92
2022-09-12T06:07:23.095Z,17.45
2022-09-12T06:12:26.680Z,16.63
2022-09-12T06:17:28.077Z,16.95
2022-09-12T06:27:30.902Z,17.23
2022-09-12T06:37:33.665Z,17.25
2022-09-12T06:47:36.270Z,16.70
2022-09-12T06:57:38.981Z,16.23
2022-09-12T07:07:41.881Z,17.15
2022-09-12T07:12:43.260Z,15.30
2022-09-12T07:22:46.600Z,15.75
2022-09-12T07:27:51.098Z,15.43
2022-09-12T07:32:54.043Z,14.43
2022-09-12T07:37:56.149Z,14.30
2022-09-12T07:42:57.534Z,14.60
2022-09-12T07:47:58.882Z,13.57
2022-09-12T07:53:00.354Z,13.00
2022-09-12T07:58:01.701Z,11.60
2022-09-12T08:03:03.745Z,10.18
2022-09-12T08:08:05.614Z,9.60
2022-09-12T08:13:10.709Z,10.18
2022-09-12T08:18:12.295Z,8.93
2022-09-12T08:23:13.681Z,8.52
2022-09-12T08:28:15.067Z,9.80
2022-09-12T08:33:16.735Z,9.05
2022-09-12T08:38:19.615Z,9.05
2022-09-12T08:43:39.184Z,9.52
2022-09-12T08:48:42.241Z,9.23
2022-09-12T08:53:45.251Z,8.20
2022-09-12T08:58:47.426Z,7.78
2022-09-12T09:04:17.293Z,8.60
2022-09-12T09:09:19.655Z,7.95
2022-09-12T09:14:49.023Z,8.13
2022-09-12T09:19:59.702Z,7.55
2022-09-12T09:25:07.927Z,7.47
2022-09-12T09:30:18.799Z,7.88
2022-09-12T09:35:36.646Z,6.93
2022-09-12T09:40:59.334Z,7.90
2022-09-12T09:46:00.777Z,7.53
2022-09-12T09:51:06.997Z,6.38
2022-09-12T09:56:36.067Z,5.68
2022-09-12T10:01:49.320Z,5.90
2022-09-12T10:06:56.945Z,5.95
2022-09-12T10:11:59.391Z,5.95
2022-09-12T10:17:03.979Z,5.75
2022-09-12T10:22:07.411Z,4.72
2022-09-12T10:27:11.713Z,5.10
2022-09-12T10:32:30.547Z,5.57
2022-09-12T10:37:38.811Z,4.82
2022-09-12T10:42:59.641Z,3.90
2022-09-12T10:48:07.635Z,4.32
2022-09-12T10:53:28.908Z,4.78
2022-09-12T10:58:57.200Z,4.30
2022-09-12T11:04:07.982Z,4.28
2022-09-12T11:09:21.898Z,4.57
2022-09-12T11:14:59.657Z,5.22
2022-09-12T11:20:21.781Z,3.85
2022-09-12T11:25:32.222Z,3.55
2022-09-12T11:30:48.392Z,3.28
2022-09-12T11:35:55.197Z,3.47
2022-09-12T11:41:11.431Z,3.63
2022-09-12T11:46:22.378Z,3.08
2022-09-12T11:56:42.930Z,3.53
2022-09-12T12:01:48.738Z,3.75
2022-09-12T12:06:58.082Z,3.22
2022-09-12T12:12:04.690Z,3.25
2022-09-12T12:17:19.993Z,3.17
2022-09-12T12:22:23.992Z,3.00
2022-09-12T12:28:11.445Z,3.30
2022-09-12T12:33:15.344Z,3.15
2022-09-12T12:38:33.157Z,2.83
2022-09-12T12:43:34.649Z,3.17
2022-09-12T12:48:46.720Z,2.75
2022-09-12T12:53:48.192Z,2.53
2022-09-12T12:58:49.578Z,2.60
2022-09-12T13:04:12.293Z,2.83
2022-09-12T13:09:24.206Z,2.65
2022-09-12T13:14:41.583Z,2.20
2022-09-12T13:19:43.871Z,2.40
2022-09-12T13:24:52.284Z,2.47
2022-09-12T13:30:15.120Z,2.30
2022-09-12T13:35:34.554Z,2.50
2022-09-12T13:40:47.814Z,2.70
2022-09-12T13:45:50.600Z,2.47
2022-09-12T13:50:58.041Z,2.10
2022-09-12T13:56:00.747Z,2.50
2022-09-12T14:01:07.115Z,2.53
2022-09-12T14:06:08.509Z,2.13
2022-09-12T14:11:11.681Z,2.60
2022-09-12T14:16:15.324Z,2.55
2022-09-12T14:21:26.395Z,2.50
2022-09-12T14:26:34.064Z,2.35
2022-09-12T14:31:37.694Z,2.80
2022-09-12T14:36:55.851Z,2.60
2022-09-12T14:42:07.658Z,2.58
2022-09-12T14:47:22.589Z,2.50
2022-09-12T14:52:34.169Z,2.78
2022-09-12T14:57:39.293Z,2.60
2022-09-12T15:02:42.522Z,2.95
2022-09-12T15:07:56.075Z,2.60
2022-09-12T15:13:28.433Z,2.40
2022-09-12T15:18:29.994Z,2.90
2022-09-12T15:23:47.486Z,2.60
2022-09-12T15:28:50.524Z,2.28
2022-09-12T15:33:52.670Z,2.53
2022-09-12T15:38:54.866Z,2.47
2022-09-12T15:43:56.687Z,1.98
2022-09-12T15:48:58.102Z,2.72
2022-09-12T15:54:02.171Z,2.60
2022-09-12T15:59:03.539Z,2.15
2022-09-12T16:04:20.947Z,2.30
2022-09-12T16:09:23.894Z,2.15
2022-09-12T16:14:25.222Z,2.40
2022-09-12T16:19:26.579Z,2.90
2022-09-12T16:24:27.934Z,2.20
2022-09-12T16:29:29.331Z,2.35
2022-09-12T16:34:30.697Z,2.92
2022-09-12T16:39:32.163Z,2.20
2022-09-12T16:44:33.626Z,2.53
2022-09-12T16:49:34.953Z,2.60
2022-09-12T16:54:36.306Z,2.90
2022-09-12T16:59:37.702Z,2.53
2022-09-12T17:04:39.711Z,2.47
2022-09-12T17:09:44.148Z,2.30
2022-09-12T17:14:47.580Z,2.30
2022-09-12T17:19:48.983Z,2.20
2022-09-12T17:24:50.361Z,2.35
2022-09-12T17:29:51.769Z,2.33
2022-09-12T17:34:53.178Z,2.72
2022-09-12T17:39:54.723Z,2.40
2022-09-12T17:44:58.213Z,2.60
2022-09-12T17:50:20.737Z,2.60
2022-09-12T17:55:21.429Z,2.70
2022-09-12T18:00:42.860Z,2.88
2022-09-12T18:05:55.389Z,3.00
2022-09-12T18:11:05.210Z,3.40
2022-09-12T18:16:09.532Z,3.13
2022-09-12T18:21:12.110Z,3.50
2022-09-12T18:26:14.233Z,3.20
2022-09-12T18:31:17.558Z,3.03
2022-09-12T18:36:19.519Z,3.28
2022-09-12T18:41:22.653Z,3.53
2022-09-12T18:46:24.977Z,4.00
2022-09-12T18:51:31.820Z,4.00
2022-09-12T18:56:35.892Z,3.90
2022-09-12T19:01:38.622Z,3.65
2022-09-12T19:06:42.620Z,3.70
2022-09-12T19:11:49.510Z,3.85
2022-09-12T19:16:52.093Z,4.00
2022-09-12T19:21:53.827Z,4.00
2022-09-12T19:26:55.213Z,4.70
2022-09-12T19:31:57.310Z,4.45
2022-09-12T19:36:59.385Z,3.95
2022-09-12T19:42:00.799Z,3.78
2022-09-12T19:47:02.196Z,4.70
2022-09-12T19:52:03.690Z,4.72
2022-09-12T19:57:05.112Z,4.70
2022-09-12T20:02:06.546Z,4.90
2022-09-12T20:07:07.969Z,5.90
2022-09-12T20:12:09.302Z,5.30
2022-09-12T20:17:10.704Z,5.00
2022-09-12T20:22:12.085Z,4.68
2022-09-12T20:27:13.453Z,4.72
2022-09-12T20:32:14.802Z,5.00
2022-09-12T20:37:16.364Z,4.15
2022-09-12T20:42:17.911Z,5.13
2022-09-12T20:47:19.507Z,4.68
2022-09-12T20:52:20.950Z,4.32
2022-09-12T20:57:23.134Z,4.15
2022-09-12T21:02:24.686Z,3.97
2022-09-12T21:07:26.240Z,3.90
2022-09-12T21:12:28.111Z,3.58
2022-09-12T21:17:29.455Z,3.38
2022-09-12T21:22:30.884Z,4.00
2022-09-12T21:27:32.294Z,3.63
2022-09-12T21:32:36.816Z,3.85
2022-09-12T21:37:38.176Z,3.50
2022-09-12T21:42:39.544Z,3.50
2022-09-12T21:47:40.891Z,3.80
2022-09-12T21:52:42.574Z,3.33
2022-09-12T21:57:44.046Z,3.70
2022-09-12T22:02:46.845Z,3.33
2022-09-12T22:07:48.362Z,3.90
2022-09-12T22:12:49.692Z,3.30
2022-09-12T22:17:51.405Z,3.50
2022-09-12T22:23:11.510Z,3.65
2022-09-12T22:28:13.698Z,4.00
2022-09-12T22:33:15.399Z,3.15
2022-09-12T22:38:16.766Z,3.20
2022-09-12T22:43:18.108Z,2.97
2022-09-12T22:48:19.465Z,2.95
2022-09-12T22:53:20.821Z,3.60
2022-09-12T22:58:22.263Z,3.35
2022-09-12T23:03:23.717Z,3.30
2022-09-12T23:08:29.406Z,3.03
2022-09-12T23:13:31.051Z,2.90
2022-09-12T23:18:35.937Z,3.25
2022-09-12T23:23:38.377Z,3.20
2022-09-12T23:28:41.301Z,2.97
2022-09-12T23:33:44.107Z,3.20
2022-09-12T23:38:46.688Z,3.50
2022-09-12T23:43:48.326Z,3.08
2022-09-12T23:48:50.121Z,3.33
2022-09-12T23:53:51.550Z,3.25
2022-09-12T23:58:52.950Z,3.28
